Briefing drone pour Veauche

Rechercher une autre localisation

Conditions de vol :


Nous sommes le : Vendredi 09 décembre 2022
Il est 12:20 UTC (13:20 LT)

Lever de soleil : 06:45 UTC (07:45 LT)
Coucher de soleil : 16:25 UTC (17:25 LT)

Météo

L'essentiel des conditions de vol

VIGILANCE MÉTÉO FRANCE - Loire (42)
Vigilance Jaune : Neige-verglas
CARTES DES FRONTS
METAR de LFMH
LFMH 091200Z AUTO VRB01KT 6000 -RA BKN006 BKN016 BKN022 03/02 Q1000

Date d'émission: 09/12/2022
Heure d'émission: 12:00 UTC
Vent: Variable 1 KT (2 km/h)
Visibilité horizontale: 6000 m
Plafond :
- Nuages morcelés à 600ft (183m)
- Nuages morcelés à 1600ft (488m)
- Nuages morcelés à 2200ft (671m)
Température: 3 °C
Point de rosée: 2 °C
Humidité: 93%
Pression (QNH): 1000 hPa
Conditions: Faible pluie
TAF de LFMH
LFMH 161901Z 1619/1712 CNL

Conditions prévues :

Heure d'émission : Bulletin éffectué le 16 à 19:00 UTC
Prévision : Valide du 16 a 19:00 UTC au 17 a 12:00 UTC
Nuages : à 0ft (0 m)
WEBCAM POUR VEAUCHE

Réglementation

Voler en sécurité

CARTES AERONAUTIQUE 1/500.000
CARTE AZBA (Reseau basse altitude)
CARTES VAC (LFMH)
SUP AIP




Chargement des AIP...
NOTAM (VEAUCHE + Terrain à proximité / FIR )




Chargement des NOTAMS...
CONTACT PREFECTURE 42


Avertissement : Les données mises à disposition sont indicatives. Oxygène Drone ne pourra être tenu responsable de dégâts causés aux biens et aux personnes.